Time;durP1;ratioP1;P1;durP2;ratioP2;P2;SDS_P1;SDS_P2;PMS_P1;PMS_P2;Temp;Humidity;BMP_temperature;BMP_pressure;BME280_temperature;BME280_humidity;BME280_pressure;Samples;Min_cycle;Max_cycle;Signal;HPM_P1;HPM_P2
2020/12/14 00:00:24;;;;;;;;;34.67;30.67;;;;;9.02;65.65;101205.72;5052064;28;8915;-77
2020/12/14 00:02:51;;;;;;;;;30.00;29.33;;;;;9.08;65.35;101216.38;5052237;28;8871;-76
2020/12/14 00:05:17;;;;;;;;;29.67;28.00;;;;;8.97;65.52;101214.25;5052152;28;8842;-76
2020/12/14 00:07:44;;;;;;;;;34.67;29.00;;;;;9.20;65.47;101205.38;5051889;28;8962;-76
2020/12/14 00:10:10;;;;;;;;;33.67;29.67;;;;;9.25;65.07;101201.16;5052332;28;8838;-76
2020/12/14 00:12:36;;;;;;;;;32.00;28.00;;;;;9.22;65.09;101206.31;5051658;28;9587;-76
2020/12/14 00:15:04;;;;;;;;;33.33;28.67;;;;;9.20;64.99;101202.75;5052350;28;8862;-77
2020/12/14 00:17:30;;;;;;;;;32.33;28.67;;;;;9.19;65.05;101206.22;5051691;28;8830;-77
2020/12/14 00:19:57;;;;;;;;;41.67;32.00;;;;;9.22;65.12;101206.31;5051864;28;8851;-77
2020/12/14 00:22:23;;;;;;;;;30.00;28.00;;;;;9.15;65.45;101214.78;5051838;28;8823;-76
2020/12/14 00:24:49;;;;;;;;;38.33;36.00;;;;;8.99;65.40;101217.78;5051895;28;8822;-76
2020/12/14 00:27:16;;;;;;;;;36.67;35.33;;;;;8.67;66.75;101218.53;5051800;28;8834;-76
2020/12/14 00:29:42;;;;;;;;;33.67;32.67;;;;;8.72;67.96;101216.97;5051633;28;8888;-77
2020/12/14 00:32:08;;;;;;;;;29.67;29.00;;;;;8.77;66.83;101218.00;5051663;28;8912;-77
2020/12/14 00:34:34;;;;;;;;;37.33;36.33;;;;;8.89;66.16;101220.97;5051271;28;8972;-77
2020/12/14 00:37:02;;;;;;;;;23.33;19.67;;;;;8.92;65.54;101226.28;5051712;28;8933;-76
2020/12/14 00:39:28;;;;;;;;;34.67;33.00;;;;;8.73;65.89;101223.94;5051245;28;8857;-77
2020/12/14 00:41:54;;;;;;;;;36.67;32.67;;;;;8.59;66.42;101227.88;5051757;28;8838;-77
2020/12/14 00:44:21;;;;;;;;;39.67;35.67;;;;;8.55;66.62;101233.81;5051326;28;8931;-78
2020/12/14 00:46:47;;;;;;;;;31.33;30.67;;;;;8.46;66.90;101233.53;5051540;28;8933;-75
2020/12/14 00:49:13;;;;;;;;;29.67;26.33;;;;;8.60;66.51;101247.91;5051444;28;8924;-76
2020/12/14 00:51:40;;;;;;;;;36.00;31.33;;;;;8.75;66.27;101244.03;5051545;28;8916;-76
2020/12/14 00:54:07;;;;;;;;;27.00;27.00;;;;;8.77;65.95;101247.63;5051148;28;8880;-77
2020/12/14 00:56:34;;;;;;;;;28.00;25.33;;;;;8.60;66.01;101243.59;5051199;28;8855;-74
2020/12/14 00:59:00;;;;;;;;;27.00;26.00;;;;;8.69;65.71;101254.31;5051196;28;8842;-75
2020/12/14 01:01:27;;;;;;;;;31.67;29.67;;;;;8.68;65.26;101254.28;5050910;28;8835;-75
2020/12/14 01:03:54;;;;;;;;;26.00;24.33;;;;;8.75;65.42;101251.88;5051044;28;8839;-75
2020/12/14 01:06:20;;;;;;;;;31.67;27.00;;;;;8.75;65.67;101264.06;5051045;28;8846;-75
2020/12/14 01:08:46;;;;;;;;;31.00;26.00;;;;;8.64;65.41;101271.53;5051254;28;8927;-74
2020/12/14 01:11:13;;;;;;;;;27.00;24.67;;;;;8.38;66.30;101268.94;5051325;28;8843;-75
2020/12/14 01:13:39;;;;;;;;;25.67;23.00;;;;;8.20;67.40;101276.16;5050996;28;8855;-74
2020/12/14 01:16:09;;;;;;;;;27.67;26.67;;;;;8.18;66.93;101277.78;5050906;28;8920;-74
2020/12/14 01:18:36;;;;;;;;;27.00;27.00;;;;;8.03;67.68;101292.88;5050838;28;8830;-74
2020/12/14 01:21:03;;;;;;;;;25.33;23.67;;;;;8.00;67.72;101292.81;5050826;28;8858;-72
2020/12/14 01:23:29;;;;;;;;;34.00;28.67;;;;;8.09;67.41;101290.53;5050638;28;9567;-74
2020/12/14 01:25:56;;;;;;;;;36.33;33.33;;;;;8.13;67.31;101289.78;5050802;28;8903;-74
2020/12/14 01:28:23;;;;;;;;;29.00;28.33;;;;;8.14;67.13;101296.78;5050680;28;8823;-75
2020/12/14 01:30:49;;;;;;;;;30.33;28.33;;;;;8.20;67.53;101297.03;5047081;28;8846;-74
2020/12/14 01:33:15;;;;;;;;;31.00;29.67;;;;;8.02;67.69;101296.34;5050962;28;8827;-74
2020/12/14 01:35:41;;;;;;;;;34.00;30.67;;;;;7.71;68.74;101304.78;5050297;28;8830;-75
2020/12/14 01:38:08;;;;;;;;;37.67;31.33;;;;;8.12;67.25;101311.47;5050730;28;8907;-75
2020/12/14 01:40:34;;;;;;;;;30.67;30.67;;;;;8.22;67.37;101305.78;5050510;28;8839;-75
2020/12/14 01:43:01;;;;;;;;;34.00;31.00;;;;;8.19;67.62;101310.84;5050607;28;8970;-74
2020/12/14 01:45:28;;;;;;;;;30.67;30.67;;;;;8.19;67.62;101310.84;5050509;28;8858;-74
2020/12/14 01:48:01;;;;;;;;;31.67;28.33;;;;;8.23;66.88;101315.38;5050536;28;8846;-75
2020/12/14 01:50:27;;;;;;;;;38.67;35.33;;;;;8.17;66.71;101315.13;5050189;28;8858;-74
2020/12/14 01:52:58;;;;;;;;;38.00;29.00;;;;;8.16;66.75;101311.63;5050499;28;8838;-75
2020/12/14 01:55:29;;;;;;;;;37.00;34.33;;;;;8.15;66.77;101314.22;5050166;28;8859;-74
2020/12/14 01:57:55;;;;;;;;;33.00;29.00;;;;;8.14;66.34;101307.22;5050827;28;8931;-74
2020/12/14 02:00:21;;;;;;;;;32.33;29.00;;;;;8.25;66.59;101305.91;5050436;28;8826;-75
2020/12/14 02:02:48;;;;;;;;;25.33;24.67;;;;;8.24;66.72;101304.09;5046469;28;8866;-74
2020/12/14 02:05:14;;;;;;;;;25.33;20.33;;;;;8.20;66.76;101312.69;5050615;28;9652;-74
2020/12/14 02:07:41;;;;;;;;;29.67;28.33;;;;;8.09;66.12;101308.78;5050375;28;8927;-74
2020/12/14 02:10:07;;;;;;;;;25.00;22.33;;;;;8.02;66.65;101306.78;5050672;28;9570;-75
2020/12/14 02:12:33;;;;;;;;;23.33;21.00;;;;;7.88;67.14;101308.03;5050051;28;9667;-75
2020/12/14 02:14:59;;;;;;;;;26.33;25.00;;;;;8.07;66.38;101310.44;5050475;28;9575;-75
2020/12/14 02:17:26;;;;;;;;;23.33;23.33;;;;;7.98;65.72;101315.34;5053443;28;8834;-75
2020/12/14 02:19:55;;;;;;;;;20.00;20.00;;;;;7.73;66.22;101317.88;5054420;28;8846;-73
2020/12/14 02:22:23;;;;;;;;;24.00;22.00;;;;;7.61;67.27;101317.44;5050593;28;8854;-75
2020/12/14 02:24:54;;;;;;;;;22.33;20.33;;;;;7.72;66.97;101310.91;5050191;28;8834;-75
2020/12/14 02:27:21;;;;;;;;;25.00;21.00;;;;;7.74;66.66;101330.09;5050492;28;8860;-74
2020/12/14 02:29:48;;;;;;;;;22.67;20.00;;;;;7.53;66.77;101318.88;5054239;28;8922;-74
2020/12/14 02:32:16;;;;;;;;;14.67;14.67;;;;;7.52;67.53;101301.47;5054080;28;8834;-74
2020/12/14 02:34:43;;;;;;;;;18.33;18.33;;;;;7.83;67.05;101320.00;5053876;28;9547;-75
2020/12/14 02:37:10;;;;;;;;;16.00;16.00;;;;;7.85;66.38;101319.22;5054127;28;8935;-75
2020/12/14 02:39:37;;;;;;;;;11.33;9.33;;;;;7.84;66.08;101324.38;5054003;28;8846;-74
2020/12/14 02:42:09;;;;;;;;;21.67;18.00;;;;;7.77;66.78;101325.00;5053958;28;8860;-74
2020/12/14 02:44:36;;;;;;;;;20.33;20.33;;;;;7.75;66.90;101326.66;5053916;28;8835;-75
2020/12/14 02:47:03;;;;;;;;;21.00;20.00;;;;;7.75;66.33;101316.22;5053734;28;8920;-76
2020/12/14 02:49:30;;;;;;;;;13.00;12.00;;;;;7.39;67.98;101320.09;5053605;28;9707;-76
2020/12/14 02:51:56;;;;;;;;;24.67;22.33;;;;;7.37;68.05;101321.72;5054104;28;8822;-76
2020/12/14 02:54:23;;;;;;;;;21.67;19.33;;;;;7.58;68.01;101312.09;5053441;28;8939;-76
2020/12/14 02:56:49;;;;;;;;;20.67;20.67;;;;;7.66;67.17;101318.50;5049871;28;8822;-76
2020/12/14 02:59:17;;;;;;;;;24.33;22.33;;;;;7.50;67.18;101318.78;5053791;28;8822;-76
2020/12/14 03:01:44;;;;;;;;;18.33;18.33;;;;;7.26;67.76;101323.94;5053592;28;8830;-75
2020/12/14 03:04:10;;;;;;;;;26.67;23.00;;;;;6.98;69.06;101325.41;5053734;28;8851;-74
2020/12/14 03:06:36;;;;;;;;;19.33;18.67;;;;;6.88;69.15;101323.25;5053628;28;8834;-76
2020/12/14 03:09:03;;;;;;;;;20.00;19.00;;;;;7.06;68.70;101314.47;5053636;28;8899;-75
2020/12/14 03:11:30;;;;;;;;;17.67;17.67;;;;;7.03;68.29;101318.66;5053686;28;8846;-76
2020/12/14 03:13:56;;;;;;;;;20.00;17.67;;;;;7.16;68.24;101315.69;5053444;28;8920;-76
2020/12/14 03:16:24;;;;;;;;;18.33;16.00;;;;;7.17;67.84;101307.94;5053267;28;8815;-75
2020/12/14 03:18:50;;;;;;;;;20.00;20.00;;;;;7.25;67.85;101316.97;5049439;28;8847;-76
2020/12/14 03:21:16;;;;;;;;;17.67;17.00;;;;;7.30;67.30;101317.13;5053384;28;8822;-77
2020/12/14 03:23:42;;;;;;;;;16.67;15.67;;;;;7.43;66.60;101325.47;5052968;28;8834;-75
2020/12/14 03:26:09;;;;;;;;;19.00;17.00;;;;;7.57;66.79;101336.41;5053091;28;8826;-74
2020/12/14 03:28:35;;;;;;;;;19.00;17.00;;;;;7.55;66.51;101343.28;5052662;28;8924;-74
2020/12/14 03:31:04;;;;;;;;;15.33;15.00;;;;;7.58;66.65;101344.28;5053244;28;8850;-75
2020/12/14 03:33:32;;;;;;;;;19.00;15.33;;;;;7.60;67.02;101339.13;5053119;28;8835;-75
2020/12/14 03:35:59;;;;;;;;;20.67;19.00;;;;;7.60;66.82;101341.75;5052765;28;8842;-76
2020/12/14 03:38:25;;;;;;;;;20.67;16.67;;;;;7.44;66.71;101349.81;5052723;28;8834;-75
2020/12/14 03:40:51;;;;;;;;;22.00;18.67;;;;;7.23;67.82;101348.97;5052946;28;8937;-75
2020/12/14 03:43:18;;;;;;;;;16.67;15.00;;;;;7.39;67.22;101351.34;5052750;28;8866;-75
2020/12/14 03:45:44;;;;;;;;;20.33;18.33;;;;;7.22;67.16;101352.38;5052698;28;8862;-75
2020/12/14 03:48:10;;;;;;;;;15.33;13.00;;;;;7.09;68.15;101361.47;5052989;28;9543;-75
2020/12/14 03:50:42;;;;;;;;;16.00;16.00;;;;;7.22;67.84;101362.81;5052624;28;8929;-75
2020/12/14 03:53:09;;;;;;;;;21.33;19.00;;;;;7.37;67.10;101363.41;5052716;28;8842;-75
2020/12/14 03:55:35;;;;;;;;;20.00;17.00;;;;;7.35;66.81;101354.66;5052198;28;8924;-75
2020/12/14 03:58:01;;;;;;;;;17.67;15.33;;;;;7.37;66.95;101358.19;5052676;28;8835;-74
2020/12/14 04:00:28;;;;;;;;;23.33;19.00;;;;;7.46;66.17;101358.56;5052419;28;8955;-75
2020/12/14 04:02:54;;;;;;;;;18.00;17.67;;;;;7.40;66.69;101363.53;5052601;28;8834;-74
2020/12/14 04:05:20;;;;;;;;;15.33;14.33;;;;;7.43;66.20;101358.44;5052213;28;8830;-75
2020/12/14 04:07:47;;;;;;;;;22.33;19.00;;;;;7.41;66.42;101360.09;5052516;28;8823;-75
2020/12/14 04:10:13;;;;;;;;;19.67;16.00;;;;;7.43;66.61;101363.66;5052343;28;8948;-75
2020/12/14 04:12:39;;;;;;;;;10.33;8.00;;;;;7.41;66.67;101370.53;5051932;28;8842;-74
2020/12/14 04:15:06;;;;;;;;;17.67;16.00;;;;;7.27;66.67;101371.69;5052514;28;8831;-74
2020/12/14 04:17:33;;;;;;;;;21.33;16.33;;;;;7.19;67.29;101373.13;5051882;28;8834;-74
2020/12/14 04:19:59;;;;;;;;;15.67;15.67;;;;;7.12;67.00;101365.91;5052178;28;8892;-75
2020/12/14 04:22:25;;;;;;;;;20.00;16.00;;;;;7.04;67.04;101359.50;5051822;28;8929;-75
2020/12/14 04:24:52;;;;;;;;;19.25;17.25;;;;;7.01;67.12;101362.88;5052275;28;8908;-74
2020/12/14 04:27:19;;;;;;;;;16.00;16.00;;;;;7.09;67.41;101360.56;5047677;28;8830;-74
2020/12/14 04:29:45;;;;;;;;;19.25;16.25;;;;;7.10;67.13;101357.13;5052074;28;8831;-75
2020/12/14 04:32:11;;;;;;;;;23.00;18.75;;;;;7.14;67.63;101377.25;5051769;28;8939;-74
2020/12/14 04:34:37;;;;;;;;;15.50;15.00;;;;;7.09;67.33;101376.19;5051693;28;8874;-75
2020/12/14 04:37:04;;;;;;;;;16.33;16.33;;;;;7.13;67.14;101378.09;5051651;28;8875;-74
2020/12/14 04:39:30;;;;;;;;;15.33;14.33;;;;;7.15;67.87;101384.25;5050689;28;8850;-75
2020/12/14 04:41:57;;;;;;;;;48.50;41.75;;;;;7.13;67.39;101388.50;5051721;28;8896;-74
2020/12/14 04:44:24;;;;;;;;;36.50;32.50;;;;;7.00;68.21;101396.63;5051443;28;8835;-76
2020/12/14 04:46:50;;;;;;;;;23.25;18.25;;;;;6.89;67.45;101405.72;5051651;28;8948;-75
2020/12/14 04:49:18;;;;;;;;;15.33;13.67;;;;;6.92;67.87;101398.06;5051644;28;8831;-75
2020/12/14 04:51:44;;;;;;;;;19.50;18.25;;;;;6.94;67.91;101386.88;5051587;28;8917;-75
2020/12/14 04:54:11;;;;;;;;;17.50;15.50;;;;;6.90;67.77;101389.31;5051296;28;8830;-77
2020/12/14 04:56:39;;;;;;;;;16.67;12.33;;;;;6.87;68.23;101400.50;5051453;28;9252;-76
2020/12/14 04:59:07;;;;;;;;;16.00;15.00;;;;;6.47;68.52;101401.34;5051431;28;8961;-74
2020/12/14 05:01:34;;;;;;;;;15.00;15.00;;;;;6.14;69.42;101405.97;5051273;28;8852;-75
2020/12/14 05:04:02;;;;;;;;;17.67;13.00;;;;;6.53;69.52;101402.47;5051331;28;8979;-75
2020/12/14 05:06:28;;;;;;;;;15.75;14.50;;;;;6.66;67.96;101414.31;5051092;28;8839;-75
2020/12/14 05:08:54;;;;;;;;;16.25;15.50;;;;;6.72;67.92;101420.66;5051112;28;8884;-75
2020/12/14 05:11:34;;;;;;;;;17.25;15.00;;;;;6.81;67.84;101417.56;5051280;28;8838;-77
2020/12/14 05:14:14;;;;;;;;;14.75;13.00;;;;;6.89;67.72;101403.13;5048685;28;8837;-75
2020/12/14 05:16:41;;;;;;;;;18.33;15.00;;;;;6.93;67.48;101405.03;5050781;28;8831;-76
2020/12/14 05:19:23;;;;;;;;;15.67;14.67;;;;;6.73;68.00;101419.84;5051215;28;9656;-75
2020/12/14 05:21:53;;;;;;;;;12.00;12.00;;;;;6.69;68.20;101419.66;5047169;28;8819;-76
2020/12/14 05:24:23;;;;;;;;;15.67;15.33;;;;;6.72;67.41;101420.66;5047042;28;8831;-75
2020/12/14 05:26:50;;;;;;;;;15.25;15.25;;;;;6.70;68.25;101416.22;5047019;28;9637;-76
2020/12/14 05:29:19;;;;;;;;;18.50;16.50;;;;;6.67;67.91;101411.78;5050832;28;8838;-76
2020/12/14 05:31:59;;;;;;;;;19.00;15.00;;;;;6.73;68.15;101405.91;5050867;28;8939;-75
2020/12/14 05:34:31;;;;;;;;;16.00;15.67;;;;;6.76;68.00;101400.84;5047368;28;8838;-77
2020/12/14 05:36:58;;;;;;;;;20.00;15.00;;;;;6.83;68.23;101402.88;5050786;28;9689;-76
2020/12/14 05:39:25;;;;;;;;;18.33;16.67;;;;;6.88;68.09;101416.97;5050601;28;8916;-76
2020/12/14 05:41:52;;;;;;;;;15.00;12.67;;;;;6.90;68.11;101415.34;5050728;28;8814;-75
2020/12/14 05:44:28;;;;;;;;;13.67;12.67;;;;;7.06;67.46;101418.63;5046540;28;8920;-77
2020/12/14 05:46:54;;;;;;;;;16.67;14.33;;;;;7.08;67.63;101432.56;5047660;28;9686;-76
2020/12/14 05:49:21;;;;;;;;;19.00;17.33;;;;;6.98;67.10;101434.75;5050228;28;8856;-76
2020/12/14 05:51:59;;;;;;;;;18.67;16.00;;;;;6.63;68.43;101435.88;5050703;28;8823;-77
2020/12/14 05:54:35;;;;;;;;;16.00;16.00;;;;;6.75;68.84;101436.38;5047106;28;8900;-76
2020/12/14 05:57:03;;;;;;;;;23.50;20.00;;;;;6.76;68.45;101437.28;5050606;28;9639;-76
2020/12/14 05:59:33;;;;;;;;;18.00;13.33;;;;;6.65;68.19;101438.56;5050595;28;8912;-77
2020/12/14 06:02:03;;;;;;;;;20.75;16.25;;;;;6.53;69.15;101438.91;5050777;28;8843;-75
2020/12/14 06:04:33;;;;;;;;;15.33;15.00;;;;;6.79;67.56;101442.59;5051015;28;8831;-75
2020/12/14 06:07:03;;;;;;;;;17.67;17.00;;;;;6.68;68.79;101449.97;5051100;28;8822;-75
2020/12/14 06:09:36;;;;;;;;;16.67;14.00;;;;;6.78;68.16;101451.25;5050299;28;9578;-76
2020/12/14 06:12:04;;;;;;;;;14.33;13.00;;;;;6.76;67.49;101452.91;5050560;28;8861;-76
2020/12/14 06:14:40;;;;;;;;;17.33;15.00;;;;;6.42;68.85;101455.75;5050492;28;8868;-74
2020/12/14 06:17:11;;;;;;;;;12.00;11.00;;;;;6.54;68.53;101455.41;5050259;28;8961;-75
2020/12/14 06:19:38;;;;;;;;;16.00;15.00;;;;;6.55;68.06;101458.09;5050259;28;8838;-81
2020/12/14 06:22:09;;;;;;;;;19.00;18.00;;;;;6.55;68.51;101459.78;5050267;28;8854;-76
2020/12/14 06:24:38;;;;;;;;;19.00;18.50;;;;;6.61;68.22;101468.75;5050842;28;8834;-77
2020/12/14 06:27:09;;;;;;;;;26.25;21.25;;;;;6.46;69.20;101467.19;5050496;28;8912;-75
2020/12/14 06:29:38;;;;;;;;;15.00;13.25;;;;;6.49;68.70;101475.13;5049999;28;8822;-77
2020/12/14 06:32:35;;;;;;;;;26.00;21.50;;;;;6.35;69.64;101474.53;5050185;28;8835;-74
2020/12/14 06:35:01;;;;;;;;;24.25;17.75;;;;;6.23;69.54;101478.28;5047943;28;8834;-75
2020/12/14 06:37:49;;;;;;;;;31.00;24.50;;;;;6.50;69.42;101485.63;5049658;28;8940;-76
2020/12/14 06:40:16;;;;;;;;;23.00;22.75;;;;;6.12;69.23;101489.91;5050130;28;8842;-73
2020/12/14 06:42:42;;;;;;;;;21.50;21.50;;;;;6.16;68.86;101497.06;5050200;28;8920;-75
2020/12/14 06:45:10;;;;;;;;;19.00;19.00;;;;;6.13;68.81;101494.28;5049966;28;8901;-75
2020/12/14 06:47:52;;;;;;;;;26.50;23.50;;;;;6.30;68.56;101501.16;5049681;28;8854;-72
2020/12/14 06:50:29;;;;;;;;;24.75;24.75;;;;;6.07;70.12;101507.03;4986497;28;11189;-73
2020/12/14 06:52:55;;;;;;;;;23.50;22.50;;;;;6.13;70.12;101504.69;5040134;28;8862;-76
2020/12/14 06:55:44;;;;;;;;;29.00;25.50;;;;;6.53;68.53;101503.09;5045850;28;8896;-79
2020/12/14 06:58:28;;;;;;;;;39.00;36.50;;;;;6.42;69.34;101506.91;5047732;28;8896;-79
2020/12/14 07:00:55;;;;;;;;;32.50;30.00;;;;;6.57;68.69;101508.47;5044341;28;8866;-81
2020/12/14 07:03:30;;;;;;;;;25.25;23.00;;;;;6.66;67.39;101507.97;5051149;28;8834;-76
2020/12/14 07:06:00;;;;;;;;;35.75;29.25;;;;;7.37;65.94;101505.00;5049234;28;8904;-80
2020/12/14 07:08:37;;;;;;;;;32.50;31.00;;;;;9.76;58.47;101490.28;5052407;28;8884;-80
2020/12/14 07:11:15;;;;;;;;;26.75;23.25;;;;;11.19;53.80;101505.81;5053803;28;8822;-77
2020/12/14 07:13:42;;;;;;;;;37.25;35.00;;;;;11.99;51.25;101499.09;5053170;28;8858;-82
2020/12/14 07:16:10;;;;;;;;;36.00;33.25;;;;;11.26;52.47;101506.00;5053501;28;9562;-79
2020/12/14 07:18:39;;;;;;;;;43.25;39.00;;;;;9.68;56.07;101518.81;5052979;28;8854;-81
2020/12/14 07:21:11;;;;;;;;;34.00;31.50;;;;;8.95;58.97;101529.38;5053342;28;8900;-78
2020/12/14 07:23:39;;;;;;;;;39.00;34.75;;;;;9.25;59.05;101530.41;5052753;28;8955;-79
2020/12/14 07:26:06;;;;;;;;;33.00;26.67;;;;;10.14;55.68;101526.41;5052977;28;8830;-79
2020/12/14 07:28:42;;;;;;;;;30.00;27.33;;;;;11.05;53.28;101530.78;5052602;28;8838;-79
2020/12/14 07:31:13;;;;;;;;;31.67;30.67;;;;;13.52;46.99;101517.91;5053211;28;8851;-80
2020/12/14 07:33:49;;;;;;;;;27.67;24.00;;;;;14.38;44.48;101513.94;5052491;28;8830;-79
2020/12/14 07:36:15;;;;;;;;;42.00;36.75;;;;;12.46;48.15;101544.75;5052346;28;8829;-80
2020/12/14 07:38:45;;;;;;;;;39.00;38.00;;;;;11.06;52.13;101548.28;5052913;28;8850;-80
2020/12/14 07:41:11;;;;;;;;;47.25;37.25;;;;;10.20;55.43;101542.28;5052410;28;9563;-80
2020/12/14 07:43:42;;;;;;;;;41.75;38.75;;;;;9.55;57.67;101553.25;5052520;28;8818;-79
2020/12/14 07:46:35;;;;;;;;;37.00;33.00;;;;;8.76;59.81;101559.19;5052874;28;8834;-79
2020/12/14 07:49:06;;;;;;;;;25.33;24.00;;;;;8.50;61.07;101552.13;5036379;28;8834;-77
2020/12/14 07:51:33;;;;;;;;;31.67;31.33;;;;;8.42;61.75;101565.72;5052474;28;8852;-79
2020/12/14 07:54:05;;;;;;;;;38.50;35.75;;;;;7.97;63.23;101558.69;5052334;28;8842;-80
2020/12/14 07:56:32;;;;;;;;;38.00;33.00;;;;;7.91;62.75;101563.66;5052105;28;9063;-79
2020/12/14 07:58:58;;;;;;;;;22.67;22.00;;;;;7.69;64.16;101571.44;5052638;28;8842;-80
2020/12/14 08:01:24;;;;;;;;;24.00;24.00;;;;;7.36;65.81;101570.06;5051935;28;8867;-79
2020/12/14 08:03:50;;;;;;;;;33.00;26.67;;;;;7.57;64.94;101565.75;5052361;28;8830;-79
2020/12/14 08:06:19;;;;;;;;;31.67;23.33;;;;;7.71;64.58;101575.03;5048045;28;8877;-83
2020/12/14 08:08:50;;;;;;;;;30.00;26.00;;;;;7.52;64.93;101567.25;5052078;28;8838;-79
2020/12/14 08:11:18;;;;;;;;;25.00;23.00;;;;;7.60;65.39;101576.31;5047538;28;8908;-79
2020/12/14 08:13:46;;;;;;;;;30.00;24.67;;;;;7.51;65.78;101586.34;5052284;28;8842;-79
2020/12/14 08:16:17;;;;;;;;;21.33;19.67;;;;;7.56;66.11;101582.22;5051896;28;8838;-79
2020/12/14 08:18:48;;;;;;;;;23.33;22.33;;;;;7.49;65.67;101580.16;5052088;28;8989;-80
2020/12/14 08:21:22;;;;;;;;;25.00;25.00;;;;;7.81;65.54;101587.56;5051751;28;8830;-80
2020/12/14 08:23:48;;;;;;;;;25.00;23.00;;;;;7.71;65.36;101585.44;5048346;28;8846;-79
2020/12/14 08:26:20;;;;;;;;;23.00;22.33;;;;;7.60;66.65;101581.53;5051932;28;8830;-81
2020/12/14 08:28:46;;;;;;;;;26.33;21.67;;;;;7.72;66.33;101587.22;5047897;28;8923;-80
2020/12/14 08:31:13;;;;;;;;;21.00;19.50;;;;;7.82;66.24;101584.16;5051768;28;8826;-80
2020/12/14 08:33:49;;;;;;;;;24.33;22.00;;;;;7.65;66.59;101585.16;5051994;28;8838;-81
2020/12/14 08:36:16;;;;;;;;;29.50;26.00;;;;;7.68;66.83;101590.53;5047470;28;8818;-80
2020/12/14 08:38:44;;;;;;;;;27.25;27.00;;;;;7.73;66.11;101589.91;5051826;28;8951;-79
2020/12/14 08:41:11;;;;;;;;;25.67;23.00;;;;;7.56;66.20;101590.03;5053320;28;8877;-79
2020/12/14 08:43:39;;;;;;;;;31.00;26.00;;;;;7.80;66.22;101596.22;5056886;28;8895;-79
2020/12/14 08:46:08;;;;;;;;;27.75;26.50;;;;;7.82;65.72;101589.38;5056120;28;9619;-79
2020/12/14 08:48:43;;;;;;;;;36.00;33.50;;;;;7.83;66.24;101596.38;5058102;28;8858;-79
2020/12/14 08:51:12;;;;;;;;;33.50;30.75;;;;;7.98;65.74;101602.22;5058681;28;8846;-78
2020/12/14 08:53:40;;;;;;;;;28.25;26.75;;;;;7.77;65.85;101596.13;5058207;28;8830;-79
2020/12/14 08:56:09;;;;;;;;;34.50;30.00;;;;;7.86;66.21;101601.69;5055924;28;8842;-79
2020/12/14 08:58:55;;;;;;;;;31.75;28.25;;;;;8.08;65.37;101604.31;5052136;28;9535;-80
2020/12/14 09:01:23;;;;;;;;;34.00;23.00;;;;;8.15;64.98;101601.16;5051464;28;8838;-78
2020/12/14 09:03:53;;;;;;;;;32.25;30.00;;;;;8.10;65.54;101602.69;5051453;28;8842;-79
2020/12/14 09:06:29;;;;;;;;;32.00;28.25;;;;;8.24;65.45;101596.31;5047599;28;9575;-77
2020/12/14 09:09:01;;;;;;;;;33.50;30.75;;;;;8.36;65.85;101608.13;5048851;28;8838;-76
2020/12/14 09:11:29;;;;;;;;;32.00;30.50;;;;;8.51;65.69;101618.25;5050880;28;8846;-79
2020/12/14 09:13:56;;;;;;;;;25.33;24.33;;;;;8.58;65.01;101604.63;5051144;28;8842;-78
2020/12/14 09:16:23;;;;;;;;;26.67;26.00;;;;;8.52;65.00;101614.81;5051143;28;8904;-79
2020/12/14 09:18:50;;;;;;;;;34.50;30.75;;;;;8.51;65.32;101618.25;5050985;28;8822;-78
2020/12/14 09:21:17;;;;;;;;;28.33;25.33;;;;;8.73;64.43;101618.22;5051282;28;8810;-84
2020/12/14 09:23:44;;;;;;;;;28.33;27.00;;;;;8.73;64.04;101623.44;5047085;28;8890;-80
2020/12/14 09:26:10;;;;;;;;;29.33;27.00;;;;;8.68;65.23;101627.63;5050531;28;8924;-79
2020/12/14 09:28:37;;;;;;;;;31.75;29.50;;;;;8.70;65.21;101631.19;5050917;28;9686;-77
2020/12/14 09:31:04;;;;;;;;;36.00;32.00;;;;;8.89;64.50;101617.94;5050905;28;8830;-78
2020/12/14 09:33:30;;;;;;;;;23.50;23.50;;;;;8.92;64.56;101612.84;5051401;28;8846;-85
2020/12/14 09:35:56;;;;;;;;;30.00;29.25;;;;;8.82;64.97;101613.34;5050807;28;8918;-79
2020/12/14 09:38:23;;;;;;;;;40.67;36.00;;;;;8.97;65.00;101626.97;5050570;28;8826;-79
2020/12/14 09:40:53;;;;;;;;;34.33;32.33;;;;;8.99;64.50;101625.28;5050527;28;8874;-80
2020/12/14 09:43:20;;;;;;;;;36.00;31.33;;;;;8.90;65.11;101611.91;5050807;28;9632;-80
2020/12/14 09:45:51;;;;;;;;;31.00;28.00;;;;;8.92;64.46;101612.84;5050666;28;8937;-80
2020/12/14 09:48:20;;;;;;;;;31.33;29.00;;;;;8.87;65.64;101615.31;5047137;28;8965;-80
2020/12/14 09:50:46;;;;;;;;;35.50;32.50;;;;;9.09;64.57;101611.72;5050627;28;8850;-79
2020/12/14 09:53:12;;;;;;;;;31.33;27.67;;;;;9.07;64.91;101610.78;5050437;28;8838;-79
2020/12/14 09:55:42;;;;;;;;;36.25;31.75;;;;;9.11;65.09;101600.50;5050747;28;8811;-75
2020/12/14 09:58:08;;;;;;;;;35.00;32.25;;;;;9.31;64.80;101595.97;5050608;28;8842;-85
2020/12/14 10:00:35;;;;;;;;;38.00;32.00;;;;;9.30;64.69;101604.66;5050896;28;8850;-82
2020/12/14 10:03:02;;;;;;;;;34.75;32.50;;;;;9.39;64.55;101604.97;5050026;28;8858;-78
2020/12/14 10:05:31;;;;;;;;;37.25;35.25;;;;;9.26;64.70;101600.13;5050671;28;8924;-78
2020/12/14 10:07:57;;;;;;;;;37.00;31.00;;;;;9.24;65.21;101591.38;5050467;28;8850;-80
2020/12/14 10:10:23;;;;;;;;;40.00;35.00;;;;;9.47;63.90;101583.47;5048003;28;8854;-77
2020/12/14 10:12:50;;;;;;;;;42.50;36.75;;;;;9.33;64.17;101586.47;5049495;28;8854;-81
2020/12/14 10:15:16;;;;;;;;;39.67;37.33;;;;;9.46;63.19;101583.44;5050639;28;8959;-81
2020/12/14 10:17:42;;;;;;;;;40.33;34.67;;;;;9.42;63.44;101581.53;5045628;28;8826;-82
2020/12/14 10:20:09;;;;;;;;;37.50;32.50;;;;;9.12;64.00;101580.50;5025455;28;11280;-79
2020/12/14 10:22:37;;;;;;;;;37.00;32.50;;;;;9.36;63.94;101582.22;5067969;28;8837;-77
2020/12/14 10:25:03;;;;;;;;;47.25;37.25;;;;;9.41;63.84;101570.22;5061584;28;8923;-76
2020/12/14 10:27:32;;;;;;;;;34.50;32.25;;;;;9.40;63.94;101567.53;5070475;28;8840;-78
2020/12/14 10:29:58;;;;;;;;;37.00;35.00;;;;;9.47;63.42;101570.41;5069974;28;8861;-79
2020/12/14 10:32:25;;;;;;;;;37.00;35.67;;;;;9.54;62.95;101566.28;5069668;28;8844;-76
2020/12/14 10:34:51;;;;;;;;;36.67;34.00;;;;;9.69;63.27;101572.00;5060977;28;9617;-75
2020/12/14 10:37:18;;;;;;;;;41.67;36.00;;;;;9.84;63.10;101569.88;5059652;28;8911;-75
2020/12/14 10:39:44;;;;;;;;;40.00;32.50;;;;;9.96;63.01;101565.03;5073333;28;8844;-75
2020/12/14 10:42:12;;;;;;;;;35.00;34.00;;;;;10.07;62.70;101561.06;5072178;28;8820;-75
2020/12/14 10:44:38;;;;;;;;;27.67;26.00;;;;;10.21;62.85;101549.28;5073571;28;8848;-75
2020/12/14 10:47:05;;;;;;;;;43.00;38.00;;;;;10.11;62.83;101560.31;5062967;28;8860;-74
2020/12/14 10:49:32;;;;;;;;;42.33;39.00;;;;;10.27;62.48;101560.84;5065005;28;9566;-75
2020/12/14 10:52:01;;;;;;;;;46.50;42.00;;;;;10.31;62.50;101556.59;5062534;28;8866;-76
2020/12/14 10:54:31;;;;;;;;;52.00;41.50;;;;;10.35;62.33;101555.84;5068924;28;8828;-76
2020/12/14 10:56:57;;;;;;;;;44.75;39.25;;;;;10.52;61.97;101557.22;5069113;28;8828;-76
2020/12/14 10:59:24;;;;;;;;;43.50;39.00;;;;;11.96;58.35;101545.34;5072343;28;8871;-76
2020/12/14 11:01:50;;;;;;;;;52.00;41.00;;;;;14.98;50.73;101531.41;5059417;28;8973;-76
2020/12/14 11:04:17;;;;;;;;;44.67;39.00;;;;;17.25;44.72;101514.38;5072036;28;8871;-74
2020/12/14 11:06:43;;;;;;;;;43.67;40.33;;;;;18.47;41.07;101509.88;5060381;28;8847;-74
2020/12/14 11:09:09;;;;;;;;;46.67;40.00;;;;;19.62;38.86;101500.34;5071296;28;8927;-76
2020/12/14 11:11:36;;;;;;;;;44.33;39.00;;;;;19.60;37.81;101496.81;5065676;28;8856;-75
2020/12/14 11:14:03;;;;;;;;;39.00;35.67;;;;;21.14;36.36;101492.38;5070778;28;8918;-75
2020/12/14 11:16:31;;;;;;;;;40.33;36.00;;;;;22.01;34.20;101490.91;5061124;28;8945;-74
2020/12/14 11:18:57;;;;;;;;;44.67;39.00;;;;;22.32;33.90;101485.88;5060919;28;9200;-76
2020/12/14 11:21:24;;;;;;;;;50.33;40.33;;;;;22.37;33.59;101490.22;5071268;28;8844;-75
2020/12/14 11:23:50;;;;;;;;;46.00;39.67;;;;;22.21;34.40;101487.88;5071078;28;8844;-77
2020/12/14 11:26:16;;;;;;;;;39.67;37.00;;;;;22.05;34.16;101489.09;5059172;28;8854;-75
2020/12/14 11:28:43;;;;;;;;;40.00;37.00;;;;;21.83;33.91;101479.72;5070762;28;8852;-77